Карточка аэропорта UAKK

Внимание!
Информация на этой странице в стадии наполнения.
Если вы не увидели какой-то информации, или заметили неточность - пожалуйста сообщите нам!
Спасибо!
Команда RU-STAFF
Название аэропортаКараганда
Название аэропорта (англ.)Karaganda
Превышение1768 ft. (538.9 m.)
Координаты49°40.302', 73°20.118'
Высота перехода10000
Эшелон переходаby ATC
Коды ответчика0630-0637, 7220-7227
Зона ОрВДНур-Султан РПИ (UACN)
Данные METARUAKK 040800Z 07004MPS 7000 -SN BKN022 M07/M10 Q1017 NOSIG RMK QFE716/0954
Проноз погоды (TAF)UAKK 040500Z 0406/0506 08006MPS 9999 BKN011 BKN030 TXM06/0409Z TNM08/0424Z TEMPO 0406/0412 1500 SHSN BR BKN004 BKN015CB TEMPO 0412/0418 2000 SHSN BKN007 BKN015CB TEMPO 0418/0503 3100 -SHSN BR SCT005 BKN015CB
NOTAMshow/hide NOTAM
AWOS   TABLE

Информация о ВПП

ВПП Длина ВПП (м.) Покрытие Курс ВПП Частота ILS
053601Железобетон50109.9
233601Железобетон230111.7

Диспетчерские позиции




Спутниковое изображение